createdAt,value
2022-08-28T00:01:26.462Z,25.04
2022-08-28T00:06:20.222Z,24.98
2022-08-28T00:11:14.990Z,24.83
2022-08-28T00:16:09.113Z,24.23
2022-08-28T00:21:02.992Z,24.62
2022-08-28T00:25:56.440Z,24.52
2022-08-28T00:30:54.769Z,24.39
2022-08-28T00:35:49.590Z,23.73
2022-08-28T00:40:44.906Z,24.05
2022-08-28T00:45:40.093Z,24.30
2022-08-28T00:50:52.325Z,24.54
2022-08-28T00:55:46.147Z,24.60
2022-08-28T01:00:41.265Z,24.84
2022-08-28T01:05:41.810Z,24.03
2022-08-28T01:10:39.059Z,23.45
2022-08-28T01:15:39.093Z,23.89
2022-08-28T01:20:36.097Z,23.56
2022-08-28T01:25:35.161Z,23.88
2022-08-28T01:30:29.300Z,23.64
2022-08-28T01:35:25.847Z,23.73
2022-08-28T01:40:27.974Z,24.06
2022-08-28T01:45:24.928Z,24.12
2022-08-28T01:50:21.841Z,23.37
2022-08-28T01:55:15.514Z,23.98
2022-08-28T02:00:15.641Z,23.72
2022-08-28T02:05:13.064Z,23.11
2022-08-28T02:10:07.660Z,22.23
2022-08-28T02:15:01.351Z,23.41
2022-08-28T02:19:54.861Z,23.47
2022-08-28T02:24:49.865Z,22.65
2022-08-28T02:29:44.269Z,23.22
2022-08-28T02:34:37.936Z,22.30
2022-08-28T02:39:31.663Z,22.52
2022-08-28T02:44:26.426Z,21.63
2022-08-28T02:49:20.308Z,22.59
2022-08-28T02:54:13.908Z,21.88
2022-08-28T02:59:11.762Z,21.39
2022-08-28T03:04:06.775Z,22.55
2022-08-28T03:09:00.226Z,21.50
2022-08-28T03:13:53.721Z,22.01
2022-08-28T03:18:47.646Z,22.64
2022-08-28T03:23:43.559Z,22.67
2022-08-28T03:28:40.384Z,22.71
2022-08-28T03:33:34.722Z,22.07
2022-08-28T03:38:29.107Z,22.18
2022-08-28T03:43:26.321Z,21.76
2022-08-28T03:48:20.323Z,22.52
2022-08-28T03:53:13.909Z,22.35
2022-08-28T03:58:07.921Z,22.47
2022-08-28T04:03:04.731Z,22.23
2022-08-28T04:07:58.381Z,22.34
2022-08-28T04:12:54.205Z,22.37
2022-08-28T04:17:52.333Z,21.49
2022-08-28T04:22:50.027Z,22.26
2022-08-28T04:27:51.811Z,21.67
2022-08-28T04:32:50.167Z,22.01
2022-08-28T04:37:44.015Z,22.00
2022-08-28T04:42:40.125Z,22.06
2022-08-28T04:47:38.623Z,22.09
2022-08-28T04:52:34.651Z,22.20
2022-08-28T04:57:27.882Z,22.22
2022-08-28T05:02:25.245Z,21.33
2022-08-28T05:07:18.500Z,22.37
2022-08-28T05:12:17.379Z,22.46
2022-08-28T05:17:10.697Z,22.61
2022-08-28T05:22:05.414Z,22.95
2022-08-28T05:26:58.664Z,23.12
2022-08-28T05:31:54.860Z,23.39
2022-08-28T05:36:50.087Z,23.66
2022-08-28T05:41:46.560Z,23.74
2022-08-28T05:46:46.758Z,23.85
2022-08-28T05:51:42.018Z,24.16
2022-08-28T05:56:38.681Z,24.64
2022-08-28T06:01:41.590Z,24.87
2022-08-28T06:06:39.865Z,24.44
2022-08-28T06:11:38.985Z,25.06
2022-08-28T06:16:42.180Z,25.54
2022-08-28T06:21:37.146Z,25.74
2022-08-28T06:26:33.378Z,25.92
2022-08-28T06:31:29.732Z,26.14
2022-08-28T06:36:30.631Z,26.10
2022-08-28T06:41:25.135Z,26.54
2022-08-28T06:46:21.884Z,26.72
2022-08-28T06:51:15.766Z,26.90
2022-08-28T06:56:25.774Z,26.78
2022-08-28T07:01:27.156Z,27.14
2022-08-28T07:06:21.967Z,27.49
2022-08-28T07:11:26.091Z,27.70
2022-08-28T07:16:21.527Z,27.88
2022-08-28T07:21:17.790Z,28.16
2022-08-28T07:26:15.132Z,28.13
2022-08-28T07:31:16.151Z,28.47
2022-08-28T07:36:29.565Z,28.69
2022-08-28T07:41:26.056Z,28.91
2022-08-28T07:46:21.772Z,29.40
2022-08-28T07:51:17.359Z,29.48
2022-08-28T07:56:11.923Z,29.83
2022-08-28T08:01:05.440Z,29.86
2022-08-28T08:06:05.973Z,30.35
2022-08-28T08:11:01.456Z,30.46
2022-08-28T08:15:54.968Z,30.75
2022-08-28T08:20:48.521Z,31.13
2022-08-28T08:25:55.257Z,31.52
2022-08-28T08:30:52.297Z,32.12
2022-08-28T08:35:48.365Z,33.02
2022-08-28T08:40:45.888Z,34.17
2022-08-28T08:45:43.301Z,35.15
2022-08-28T08:50:39.804Z,35.94
2022-08-28T09:01:05.098Z,37.13
2022-08-28T09:06:03.669Z,37.31
2022-08-28T09:11:13.772Z,37.49
2022-08-28T09:16:15.190Z,37.54
2022-08-28T09:21:08.522Z,37.51
2022-08-28T09:26:09.323Z,37.52
2022-08-28T09:31:08.768Z,37.50
2022-08-28T09:36:29.113Z,37.34
2022-08-28T09:41:43.716Z,37.01
2022-08-28T09:46:44.777Z,36.92
2022-08-28T09:51:39.526Z,36.78
2022-08-28T09:56:36.937Z,36.90
2022-08-28T10:01:56.964Z,36.91
2022-08-28T10:06:54.817Z,36.83
2022-08-28T10:11:55.217Z,36.82
2022-08-28T10:16:57.473Z,36.94
2022-08-28T10:21:59.742Z,37.01
2022-08-28T10:27:08.710Z,37.10
2022-08-28T10:32:26.737Z,37.22
2022-08-28T10:37:30.339Z,37.20
2022-08-28T10:42:35.988Z,37.33
2022-08-28T10:47:30.988Z,37.44
2022-08-28T10:52:31.782Z,37.71
2022-08-28T10:57:37.311Z,37.42
2022-08-28T11:02:33.349Z,38.80
2022-08-28T11:07:36.466Z,39.36
2022-08-28T11:12:44.472Z,39.93
2022-08-28T11:17:44.093Z,40.73
2022-08-28T11:22:42.983Z,41.47
2022-08-28T11:27:38.725Z,42.24
2022-08-28T11:33:04.249Z,43.00
2022-08-28T11:37:59.390Z,43.57
2022-08-28T11:42:52.736Z,43.98
2022-08-28T11:48:02.161Z,44.33
2022-08-28T11:53:37.259Z,44.81
2022-08-28T11:58:41.962Z,44.97
2022-08-28T12:03:47.205Z,45.14
2022-08-28T12:09:15.519Z,45.53
2022-08-28T12:14:09.340Z,46.03
2022-08-28T12:19:07.810Z,46.23
2022-08-28T12:24:09.922Z,46.18
2022-08-28T12:29:24.697Z,45.94
2022-08-28T12:34:32.923Z,46.03
2022-08-28T12:39:26.544Z,46.22
2022-08-28T12:44:33.934Z,46.55
2022-08-28T12:49:35.825Z,46.39
2022-08-28T12:54:29.951Z,46.14
2022-08-28T12:59:27.310Z,46.08
2022-08-28T13:04:29.603Z,46.30
2022-08-28T13:09:28.727Z,46.66
2022-08-28T13:14:38.493Z,46.82
2022-08-28T13:19:33.736Z,46.83
2022-08-28T13:24:49.078Z,47.04
2022-08-28T13:29:57.285Z,47.03
2022-08-28T13:35:34.782Z,46.73
2022-08-28T13:40:56.856Z,46.69
2022-08-28T13:45:48.371Z,46.72
2022-08-28T13:57:03.767Z,46.27
2022-08-28T14:02:19.414Z,46.43
2022-08-28T14:07:13.029Z,46.13
2022-08-28T14:12:09.929Z,46.01
2022-08-28T14:17:05.079Z,46.03
2022-08-28T14:21:58.471Z,45.70
2022-08-28T14:26:56.312Z,45.62
2022-08-28T14:31:54.325Z,45.07
2022-08-28T14:36:50.951Z,44.24
2022-08-28T14:41:46.248Z,44.15
2022-08-28T14:46:39.748Z,43.75
2022-08-28T14:51:36.028Z,43.35
2022-08-28T14:56:31.623Z,43.04
2022-08-28T15:01:26.558Z,43.03
2022-08-28T15:06:34.965Z,42.54
2022-08-28T15:11:29.953Z,41.91
2022-08-28T15:16:29.893Z,41.21
2022-08-28T15:21:26.705Z,40.27
2022-08-28T15:26:23.115Z,39.28
2022-08-28T15:31:17.272Z,38.57
2022-08-28T15:36:10.905Z,37.99
2022-08-28T15:41:21.767Z,37.53
2022-08-28T15:46:16.627Z,37.19
2022-08-28T15:51:09.968Z,36.91
2022-08-28T15:56:11.579Z,36.57
2022-08-28T16:01:05.075Z,36.31
2022-08-28T16:05:59.775Z,36.32
2022-08-28T16:10:53.910Z,36.03
2022-08-28T16:15:47.966Z,35.93
2022-08-28T16:20:42.218Z,35.59
2022-08-28T16:25:36.912Z,35.40
2022-08-28T16:30:30.208Z,35.16
2022-08-28T16:35:24.356Z,34.89
2022-08-28T16:40:17.892Z,34.92
2022-08-28T16:45:17.261Z,34.18
2022-08-28T16:50:26.973Z,34.46
2022-08-28T16:55:32.648Z,32.92
2022-08-28T17:00:31.819Z,34.04
2022-08-28T17:05:27.524Z,32.65
2022-08-28T17:10:27.849Z,33.22
2022-08-28T17:15:32.924Z,32.34
2022-08-28T17:20:46.084Z,32.34
2022-08-28T17:25:45.457Z,32.99
2022-08-28T17:30:43.944Z,32.35
2022-08-28T17:35:44.285Z,32.40
2022-08-28T17:40:44.732Z,32.41
2022-08-28T17:45:38.407Z,31.50
2022-08-28T17:50:34.365Z,31.75
2022-08-28T17:55:30.609Z,31.15
2022-08-28T18:00:38.532Z,31.43
2022-08-28T18:05:34.149Z,30.88
2022-08-28T18:10:33.680Z,31.07
2022-08-28T18:15:27.618Z,30.89
2022-08-28T18:20:21.492Z,30.01
2022-08-28T18:25:33.000Z,29.82
2022-08-28T18:30:27.672Z,30.74
2022-08-28T18:35:31.805Z,30.06
2022-08-28T18:40:27.372Z,29.83
2022-08-28T18:45:20.994Z,30.31
2022-08-28T18:50:15.824Z,29.90
2022-08-28T18:55:12.276Z,29.42
2022-08-28T19:00:11.624Z,29.61
2022-08-28T19:05:06.394Z,28.40
2022-08-28T19:10:18.309Z,29.05
2022-08-28T19:15:33.888Z,29.04
2022-08-28T19:20:28.622Z,28.18
2022-08-28T19:25:33.729Z,27.65
2022-08-28T19:30:37.109Z,28.40
2022-08-28T19:35:32.394Z,28.68
2022-08-28T19:40:27.923Z,28.05
2022-08-28T19:45:23.416Z,28.12
2022-08-28T19:50:24.255Z,28.20
2022-08-28T19:55:24.237Z,27.59
2022-08-28T20:00:24.059Z,28.12
2022-08-28T20:05:22.355Z,28.01
2022-08-28T20:10:21.015Z,28.06
2022-08-28T20:15:26.623Z,27.58
2022-08-28T20:20:27.986Z,28.08
2022-08-28T20:25:25.795Z,27.85
2022-08-28T20:30:21.406Z,27.93
2022-08-28T20:35:31.747Z,27.48
2022-08-28T20:40:29.031Z,27.73
2022-08-28T20:45:23.146Z,27.01
2022-08-28T20:50:17.035Z,27.38
2022-08-28T20:55:16.001Z,26.79
2022-08-28T21:00:12.756Z,27.28
2022-08-28T21:05:07.036Z,26.98
2022-08-28T21:10:06.871Z,27.10
2022-08-28T21:15:03.649Z,26.94
2022-08-28T21:19:58.875Z,25.75
2022-08-28T21:24:55.228Z,26.13
2022-08-28T21:29:53.580Z,25.52
2022-08-28T21:34:47.242Z,25.67
2022-08-28T21:39:45.517Z,26.38
2022-08-28T21:44:51.614Z,25.67
2022-08-28T21:49:52.166Z,25.94
2022-08-28T21:54:46.914Z,26.70
2022-08-28T21:59:45.166Z,26.64
2022-08-28T22:04:40.829Z,26.55
2022-08-28T22:09:36.629Z,26.97
2022-08-28T22:14:32.917Z,26.72
2022-08-28T22:19:27.643Z,26.16
2022-08-28T22:24:23.825Z,26.36
2022-08-28T22:29:17.916Z,25.82
2022-08-28T22:34:12.763Z,26.23
2022-08-28T22:39:08.304Z,26.19
2022-08-28T22:44:04.397Z,26.15
2022-08-28T22:48:59.355Z,25.77
2022-08-28T22:53:54.566Z,25.48
2022-08-28T22:58:48.627Z,24.79
2022-08-28T23:03:48.687Z,25.18
2022-08-28T23:08:44.572Z,25.41
2022-08-28T23:13:41.670Z,24.99
2022-08-28T23:18:51.961Z,25.46
2022-08-28T23:23:49.062Z,24.51
2022-08-28T23:28:46.724Z,25.07
2022-08-28T23:33:43.434Z,25.14
2022-08-28T23:38:42.903Z,25.09
2022-08-28T23:43:39.016Z,24.84
2022-08-28T23:48:35.758Z,24.93
2022-08-28T23:53:30.696Z,24.94
2022-08-28T23:58:24.454Z,24.35
